sensor_id;sensor_type;location;lat;lon;timestamp;P1;durP1;ratioP1;P2;durP2;ratioP2
16593;SDS011;8410;52.532;13.336;2022-09-21T00:01:06;7.03;;;6.43;;
16593;SDS011;8410;52.532;13.336;2022-09-21T00:03:34;6.97;;;6.37;;
16593;SDS011;8410;52.532;13.336;2022-09-21T00:06:04;6.47;;;5.83;;
16593;SDS011;8410;52.532;13.336;2022-09-21T00:08:32;7.03;;;6.30;;
16593;SDS011;8410;52.532;13.336;2022-09-21T00:11:00;8.20;;;6.40;;
16593;SDS011;8410;52.532;13.336;2022-09-21T00:13:28;7.47;;;6.60;;
16593;SDS011;8410;52.532;13.336;2022-09-21T00:15:58;6.60;;;5.50;;
16593;SDS011;8410;52.532;13.336;2022-09-21T00:18:26;6.60;;;5.90;;
16593;SDS011;8410;52.532;13.336;2022-09-21T00:20:54;6.13;;;5.53;;
16593;SDS011;8410;52.532;13.336;2022-09-21T00:23:22;7.63;;;5.40;;
16593;SDS011;8410;52.532;13.336;2022-09-21T00:25:51;7.17;;;5.70;;
16593;SDS011;8410;52.532;13.336;2022-09-21T00:28:18;7.10;;;5.50;;
16593;SDS011;8410;52.532;13.336;2022-09-21T00:30:45;7.63;;;5.43;;
16593;SDS011;8410;52.532;13.336;2022-09-21T00:33:16;6.60;;;5.53;;
16593;SDS011;8410;52.532;13.336;2022-09-21T00:35:44;6.97;;;5.77;;
16593;SDS011;8410;52.532;13.336;2022-09-21T00:38:12;6.97;;;5.30;;
16593;SDS011;8410;52.532;13.336;2022-09-21T00:40:41;5.40;;;4.90;;
16593;SDS011;8410;52.532;13.336;2022-09-21T00:43:12;5.90;;;5.27;;
16593;SDS011;8410;52.532;13.336;2022-09-21T00:45:40;5.47;;;4.97;;
16593;SDS011;8410;52.532;13.336;2022-09-21T00:48:09;6.83;;;5.53;;
16593;SDS011;8410;52.532;13.336;2022-09-21T00:50:37;6.80;;;5.30;;
16593;SDS011;8410;52.532;13.336;2022-09-21T00:53:12;6.57;;;5.87;;
16593;SDS011;8410;52.532;13.336;2022-09-21T00:55:43;7.97;;;5.50;;
16593;SDS011;8410;52.532;13.336;2022-09-21T00:58:15;6.30;;;5.67;;
16593;SDS011;8410;52.532;13.336;2022-09-21T01:00:48;6.47;;;5.13;;
16593;SDS011;8410;52.532;13.336;2022-09-21T01:03:15;6.57;;;5.03;;
16593;SDS011;8410;52.532;13.336;2022-09-21T01:05:43;6.23;;;5.40;;
16593;SDS011;8410;52.532;13.336;2022-09-21T01:08:10;6.43;;;5.10;;
16593;SDS011;8410;52.532;13.336;2022-09-21T01:10:41;6.20;;;5.60;;
16593;SDS011;8410;52.532;13.336;2022-09-21T01:13:24;6.03;;;5.40;;
16593;SDS011;8410;52.532;13.336;2022-09-21T01:16:03;6.33;;;4.97;;
16593;SDS011;8410;52.532;13.336;2022-09-21T01:18:40;6.87;;;5.23;;
16593;SDS011;8410;52.532;13.336;2022-09-21T01:21:17;5.53;;;4.90;;
16593;SDS011;8410;52.532;13.336;2022-09-21T01:23:58;6.03;;;5.43;;
16593;SDS011;8410;52.532;13.336;2022-09-21T01:26:43;7.33;;;5.80;;
16593;SDS011;8410;52.532;13.336;2022-09-21T01:29:29;5.67;;;5.13;;
16593;SDS011;8410;52.532;13.336;2022-09-21T01:32:01;6.67;;;4.80;;
16593;SDS011;8410;52.532;13.336;2022-09-21T01:34:35;5.43;;;4.93;;
16593;SDS011;8410;52.532;13.336;2022-09-21T01:37:08;5.70;;;4.87;;
16593;SDS011;8410;52.532;13.336;2022-09-21T01:39:41;4.60;;;4.20;;
16593;SDS011;8410;52.532;13.336;2022-09-21T01:42:12;5.03;;;4.53;;
16593;SDS011;8410;52.532;13.336;2022-09-21T01:44:44;6.80;;;4.70;;
16593;SDS011;8410;52.532;13.336;2022-09-21T01:47:13;4.73;;;4.23;;
16593;SDS011;8410;52.532;13.336;2022-09-21T01:49:45;5.10;;;4.60;;
16593;SDS011;8410;52.532;13.336;2022-09-21T01:52:17;5.10;;;4.60;;
16593;SDS011;8410;52.532;13.336;2022-09-21T01:54:50;5.83;;;4.17;;
16593;SDS011;8410;52.532;13.336;2022-09-21T01:57:22;6.50;;;4.43;;
16593;SDS011;8410;52.532;13.336;2022-09-21T01:59:58;5.77;;;4.63;;
16593;SDS011;8410;52.532;13.336;2022-09-21T02:02:29;4.70;;;4.30;;
16593;SDS011;8410;52.532;13.336;2022-09-21T02:05:02;5.13;;;4.20;;
16593;SDS011;8410;52.532;13.336;2022-09-21T02:07:31;4.70;;;4.30;;
16593;SDS011;8410;52.532;13.336;2022-09-21T02:09:59;4.60;;;4.07;;
16593;SDS011;8410;52.532;13.336;2022-09-21T02:12:28;5.47;;;4.33;;
16593;SDS011;8410;52.532;13.336;2022-09-21T02:14:58;6.97;;;4.97;;
16593;SDS011;8410;52.532;13.336;2022-09-21T02:17:29;5.80;;;5.20;;
16593;SDS011;8410;52.532;13.336;2022-09-21T02:20:05;4.83;;;4.10;;
16593;SDS011;8410;52.532;13.336;2022-09-21T02:22:53;6.73;;;4.70;;
16593;SDS011;8410;52.532;13.336;2022-09-21T02:25:30;5.83;;;4.53;;
16593;SDS011;8410;52.532;13.336;2022-09-21T02:28:07;5.93;;;4.67;;
16593;SDS011;8410;52.532;13.336;2022-09-21T02:30:46;4.87;;;4.40;;
16593;SDS011;8410;52.532;13.336;2022-09-21T02:33:22;6.40;;;4.20;;
16593;SDS011;8410;52.532;13.336;2022-09-21T02:35:54;4.60;;;4.20;;
16593;SDS011;8410;52.532;13.336;2022-09-21T02:38:29;5.47;;;4.47;;
16593;SDS011;8410;52.532;13.336;2022-09-21T02:41:03;6.77;;;4.00;;
16593;SDS011;8410;52.532;13.336;2022-09-21T02:43:36;4.33;;;3.93;;
16593;SDS011;8410;52.532;13.336;2022-09-21T02:46:10;4.23;;;3.80;;
16593;SDS011;8410;52.532;13.336;2022-09-21T02:48:42;4.17;;;3.67;;
16593;SDS011;8410;52.532;13.336;2022-09-21T02:51:14;6.37;;;3.93;;
16593;SDS011;8410;52.532;13.336;2022-09-21T02:53:45;5.40;;;4.13;;
16593;SDS011;8410;52.532;13.336;2022-09-21T02:56:15;4.50;;;4.10;;
16593;SDS011;8410;52.532;13.336;2022-09-21T02:58:44;6.07;;;3.93;;
16593;SDS011;8410;52.532;13.336;2022-09-21T03:01:16;4.23;;;3.83;;
16593;SDS011;8410;52.532;13.336;2022-09-21T03:03:45;5.27;;;4.50;;
16593;SDS011;8410;52.532;13.336;2022-09-21T03:06:13;4.43;;;4.03;;
16593;SDS011;8410;52.532;13.336;2022-09-21T03:08:41;4.30;;;3.90;;
16593;SDS011;8410;52.532;13.336;2022-09-21T03:11:08;6.43;;;4.40;;
16593;SDS011;8410;52.532;13.336;2022-09-21T03:13:36;8.30;;;5.37;;
16593;SDS011;8410;52.532;13.336;2022-09-21T03:16:04;6.40;;;5.03;;
16593;SDS011;8410;52.532;13.336;2022-09-21T03:18:34;5.50;;;5.00;;
16593;SDS011;8410;52.532;13.336;2022-09-21T03:21:02;5.07;;;4.67;;
16593;SDS011;8410;52.532;13.336;2022-09-21T03:23:29;5.70;;;4.60;;
16593;SDS011;8410;52.532;13.336;2022-09-21T03:25:57;6.03;;;4.40;;
16593;SDS011;8410;52.532;13.336;2022-09-21T03:28:24;7.37;;;4.63;;
16593;SDS011;8410;52.532;13.336;2022-09-21T03:30:52;6.30;;;4.47;;
16593;SDS011;8410;52.532;13.336;2022-09-21T03:33:19;5.13;;;4.63;;
16593;SDS011;8410;52.532;13.336;2022-09-21T03:35:49;5.43;;;4.87;;
16593;SDS011;8410;52.532;13.336;2022-09-21T03:38:17;5.77;;;4.73;;
16593;SDS011;8410;52.532;13.336;2022-09-21T03:40:45;5.27;;;4.73;;
16593;SDS011;8410;52.532;13.336;2022-09-21T03:43:13;6.47;;;4.70;;
16593;SDS011;8410;52.532;13.336;2022-09-21T03:45:40;4.90;;;4.40;;
16593;SDS011;8410;52.532;13.336;2022-09-21T03:48:08;7.77;;;5.13;;
16593;SDS011;8410;52.532;13.336;2022-09-21T03:50:37;8.23;;;6.10;;
16593;SDS011;8410;52.532;13.336;2022-09-21T03:53:06;4.80;;;4.30;;
16593;SDS011;8410;52.532;13.336;2022-09-21T03:55:34;5.23;;;4.47;;
16593;SDS011;8410;52.532;13.336;2022-09-21T03:58:02;10.03;;;5.00;;
16593;SDS011;8410;52.532;13.336;2022-09-21T04:00:30;6.50;;;4.00;;
16593;SDS011;8410;52.532;13.336;2022-09-21T04:02:57;4.00;;;3.70;;
16593;SDS011;8410;52.532;13.336;2022-09-21T04:05:25;5.07;;;4.13;;
16593;SDS011;8410;52.532;13.336;2022-09-21T04:07:53;6.13;;;4.00;;
16593;SDS011;8410;52.532;13.336;2022-09-21T04:10:23;6.50;;;4.07;;
16593;SDS011;8410;52.532;13.336;2022-09-21T04:12:55;4.13;;;3.70;;
16593;SDS011;8410;52.532;13.336;2022-09-21T04:15:23;4.17;;;3.77;;
16593;SDS011;8410;52.532;13.336;2022-09-21T04:17:51;8.63;;;4.63;;
16593;SDS011;8410;52.532;13.336;2022-09-21T04:20:19;5.80;;;4.20;;
16593;SDS011;8410;52.532;13.336;2022-09-21T04:22:47;4.33;;;3.93;;
16593;SDS011;8410;52.532;13.336;2022-09-21T04:25:16;4.77;;;4.23;;
16593;SDS011;8410;52.532;13.336;2022-09-21T04:27:45;4.87;;;4.33;;
16593;SDS011;8410;52.532;13.336;2022-09-21T04:30:14;4.90;;;4.00;;
16593;SDS011;8410;52.532;13.336;2022-09-21T04:32:42;6.93;;;5.57;;
16593;SDS011;8410;52.532;13.336;2022-09-21T04:35:10;5.50;;;4.57;;
16593;SDS011;8410;52.532;13.336;2022-09-21T04:37:37;6.93;;;4.43;;
16593;SDS011;8410;52.532;13.336;2022-09-21T04:40:05;6.37;;;4.07;;
16593;SDS011;8410;52.532;13.336;2022-09-21T04:42:34;5.13;;;4.13;;
16593;SDS011;8410;52.532;13.336;2022-09-21T04:45:03;4.07;;;3.77;;
16593;SDS011;8410;52.532;13.336;2022-09-21T04:47:31;9.03;;;4.30;;
16593;SDS011;8410;52.532;13.336;2022-09-21T04:49:58;7.20;;;3.80;;
16593;SDS011;8410;52.532;13.336;2022-09-21T04:52:26;5.80;;;4.30;;
16593;SDS011;8410;52.532;13.336;2022-09-21T04:54:53;6.37;;;4.00;;
16593;SDS011;8410;52.532;13.336;2022-09-21T04:57:21;7.03;;;4.00;;
16593;SDS011;8410;52.532;13.336;2022-09-21T04:59:48;5.80;;;3.60;;
16593;SDS011;8410;52.532;13.336;2022-09-21T05:02:17;6.00;;;4.07;;
16593;SDS011;8410;52.532;13.336;2022-09-21T05:04:45;5.93;;;4.80;;
16593;SDS011;8410;52.532;13.336;2022-09-21T05:07:16;8.80;;;4.63;;
16593;SDS011;8410;52.532;13.336;2022-09-21T05:09:43;6.57;;;4.77;;
16593;SDS011;8410;52.532;13.336;2022-09-21T05:12:29;5.03;;;4.13;;
16593;SDS011;8410;52.532;13.336;2022-09-21T05:14:57;5.50;;;4.50;;
16593;SDS011;8410;52.532;13.336;2022-09-21T05:17:26;5.33;;;3.77;;
16593;SDS011;8410;52.532;13.336;2022-09-21T05:19:54;6.27;;;3.53;;
16593;SDS011;8410;52.532;13.336;2022-09-21T05:22:21;5.67;;;4.47;;
16593;SDS011;8410;52.532;13.336;2022-09-21T05:24:49;7.17;;;4.70;;
16593;SDS011;8410;52.532;13.336;2022-09-21T05:27:16;5.13;;;4.20;;
16593;SDS011;8410;52.532;13.336;2022-09-21T05:29:44;7.53;;;4.17;;
16593;SDS011;8410;52.532;13.336;2022-09-21T05:32:12;5.83;;;4.63;;
16593;SDS011;8410;52.532;13.336;2022-09-21T05:34:55;5.20;;;4.27;;
16593;SDS011;8410;52.532;13.336;2022-09-21T05:37:35;6.90;;;4.53;;
16593;SDS011;8410;52.532;13.336;2022-09-21T05:40:07;5.83;;;5.00;;
16593;SDS011;8410;52.532;13.336;2022-09-21T05:42:37;5.97;;;5.03;;
16593;SDS011;8410;52.532;13.336;2022-09-21T05:45:05;6.83;;;5.17;;
16593;SDS011;8410;52.532;13.336;2022-09-21T05:47:36;10.37;;;7.13;;
16593;SDS011;8410;52.532;13.336;2022-09-21T05:50:14;10.03;;;5.73;;
16593;SDS011;8410;52.532;13.336;2022-09-21T05:52:53;10.43;;;5.43;;
16593;SDS011;8410;52.532;13.336;2022-09-21T05:55:32;6.73;;;5.13;;
16593;SDS011;8410;52.532;13.336;2022-09-21T05:58:09;7.97;;;5.30;;
16593;SDS011;8410;52.532;13.336;2022-09-21T06:00:48;9.63;;;5.50;;
16593;SDS011;8410;52.532;13.336;2022-09-21T06:03:26;9.27;;;4.90;;
16593;SDS011;8410;52.532;13.336;2022-09-21T06:05:56;6.70;;;4.80;;
16593;SDS011;8410;52.532;13.336;2022-09-21T06:08:25;6.10;;;5.27;;
16593;SDS011;8410;52.532;13.336;2022-09-21T06:10:52;5.87;;;5.27;;
16593;SDS011;8410;52.532;13.336;2022-09-21T06:13:21;11.40;;;5.60;;
16593;SDS011;8410;52.532;13.336;2022-09-21T06:15:48;7.07;;;5.17;;
16593;SDS011;8410;52.532;13.336;2022-09-21T06:18:16;7.23;;;5.63;;
16593;SDS011;8410;52.532;13.336;2022-09-21T06:20:43;6.93;;;5.23;;
16593;SDS011;8410;52.532;13.336;2022-09-21T06:23:12;10.13;;;6.20;;
16593;SDS011;8410;52.532;13.336;2022-09-21T06:25:40;7.40;;;6.37;;
16593;SDS011;8410;52.532;13.336;2022-09-21T06:28:09;12.23;;;6.00;;
16593;SDS011;8410;52.532;13.336;2022-09-21T06:30:38;11.73;;;6.33;;
16593;SDS011;8410;52.532;13.336;2022-09-21T06:33:07;15.40;;;6.80;;
16593;SDS011;8410;52.532;13.336;2022-09-21T06:35:35;19.40;;;5.70;;
16593;SDS011;8410;52.532;13.336;2022-09-21T06:38:03;8.83;;;5.60;;
16593;SDS011;8410;52.532;13.336;2022-09-21T06:40:34;9.30;;;5.10;;
16593;SDS011;8410;52.532;13.336;2022-09-21T06:43:03;6.73;;;5.30;;
16593;SDS011;8410;52.532;13.336;2022-09-21T06:45:31;10.97;;;5.43;;
16593;SDS011;8410;52.532;13.336;2022-09-21T06:47:59;5.50;;;4.70;;
16593;SDS011;8410;52.532;13.336;2022-09-21T06:50:26;5.50;;;4.70;;
16593;SDS011;8410;52.532;13.336;2022-09-21T06:52:54;7.33;;;5.23;;
16593;SDS011;8410;52.532;13.336;2022-09-21T06:55:21;7.67;;;5.13;;
16593;SDS011;8410;52.532;13.336;2022-09-21T06:57:50;6.63;;;4.90;;
16593;SDS011;8410;52.532;13.336;2022-09-21T07:00:17;10.30;;;5.97;;
16593;SDS011;8410;52.532;13.336;2022-09-21T07:02:45;6.60;;;5.00;;
16593;SDS011;8410;52.532;13.336;2022-09-21T07:05:13;6.47;;;5.10;;
16593;SDS011;8410;52.532;13.336;2022-09-21T07:07:40;6.53;;;5.30;;
16593;SDS011;8410;52.532;13.336;2022-09-21T07:10:08;5.93;;;5.17;;
16593;SDS011;8410;52.532;13.336;2022-09-21T07:12:43;5.00;;;4.50;;
16593;SDS011;8410;52.532;13.336;2022-09-21T07:15:12;5.17;;;4.67;;
16593;SDS011;8410;52.532;13.336;2022-09-21T07:17:40;6.27;;;5.00;;
16593;SDS011;8410;52.532;13.336;2022-09-21T07:20:17;5.80;;;4.83;;
16593;SDS011;8410;52.532;13.336;2022-09-21T07:22:44;7.00;;;5.00;;
16593;SDS011;8410;52.532;13.336;2022-09-21T07:25:12;9.53;;;5.97;;
16593;SDS011;8410;52.532;13.336;2022-09-21T07:27:40;6.07;;;4.80;;
16593;SDS011;8410;52.532;13.336;2022-09-21T07:30:08;5.13;;;4.63;;
16593;SDS011;8410;52.532;13.336;2022-09-21T07:32:37;5.03;;;4.50;;
16593;SDS011;8410;52.532;13.336;2022-09-21T07:35:05;5.10;;;4.40;;
16593;SDS011;8410;52.532;13.336;2022-09-21T07:37:33;7.93;;;4.60;;
16593;SDS011;8410;52.532;13.336;2022-09-21T07:40:00;5.77;;;4.50;;
16593;SDS011;8410;52.532;13.336;2022-09-21T07:42:31;6.70;;;4.83;;
16593;SDS011;8410;52.532;13.336;2022-09-21T07:44:58;6.47;;;5.00;;
16593;SDS011;8410;52.532;13.336;2022-09-21T07:47:30;8.23;;;5.50;;
16593;SDS011;8410;52.532;13.336;2022-09-21T07:49:59;7.17;;;4.93;;
16593;SDS011;8410;52.532;13.336;2022-09-21T07:52:26;5.77;;;4.60;;
16593;SDS011;8410;52.532;13.336;2022-09-21T07:54:54;7.47;;;5.00;;
16593;SDS011;8410;52.532;13.336;2022-09-21T07:57:21;7.93;;;6.17;;
16593;SDS011;8410;52.532;13.336;2022-09-21T08:00:07;7.07;;;5.20;;
16593;SDS011;8410;52.532;13.336;2022-09-21T08:02:35;5.90;;;4.80;;
16593;SDS011;8410;52.532;13.336;2022-09-21T08:05:04;8.33;;;4.77;;
16593;SDS011;8410;52.532;13.336;2022-09-21T08:07:32;6.03;;;4.87;;
16593;SDS011;8410;52.532;13.336;2022-09-21T08:10:00;5.80;;;5.20;;
16593;SDS011;8410;52.532;13.336;2022-09-21T08:12:27;7.60;;;4.77;;
16593;SDS011;8410;52.532;13.336;2022-09-21T08:14:55;9.40;;;5.23;;
16593;SDS011;8410;52.532;13.336;2022-09-21T08:17:22;2.60;;;1.07;;
16593;SDS011;8410;52.532;13.336;2022-09-21T08:19:49;2.57;;;2.10;;
16593;SDS011;8410;52.532;13.336;2022-09-21T08:22:18;3.90;;;2.17;;
16593;SDS011;8410;52.532;13.336;2022-09-21T08:24:49;8.57;;;4.27;;
16593;SDS011;8410;52.532;13.336;2022-09-21T08:27:17;8.23;;;4.97;;
16593;SDS011;8410;52.532;13.336;2022-09-21T08:29:46;7.37;;;4.67;;
16593;SDS011;8410;52.532;13.336;2022-09-21T08:32:13;5.30;;;4.23;;
16593;SDS011;8410;52.532;13.336;2022-09-21T08:35:00;5.83;;;4.43;;
16593;SDS011;8410;52.532;13.336;2022-09-21T08:37:29;5.23;;;4.73;;
16593;SDS011;8410;52.532;13.336;2022-09-21T08:39:58;5.20;;;4.40;;
16593;SDS011;8410;52.532;13.336;2022-09-21T08:42:32;4.87;;;4.00;;
16593;SDS011;8410;52.532;13.336;2022-09-21T08:45:08;6.93;;;3.90;;
16593;SDS011;8410;52.532;13.336;2022-09-21T08:47:39;6.20;;;3.73;;
16593;SDS011;8410;52.532;13.336;2022-09-21T08:50:18;5.20;;;3.77;;
16593;SDS011;8410;52.532;13.336;2022-09-21T08:52:59;7.47;;;4.20;;
16593;SDS011;8410;52.532;13.336;2022-09-21T08:55:30;6.70;;;4.23;;
16593;SDS011;8410;52.532;13.336;2022-09-21T08:57:58;7.53;;;4.40;;
16593;SDS011;8410;52.532;13.336;2022-09-21T09:00:26;6.83;;;4.63;;
16593;SDS011;8410;52.532;13.336;2022-09-21T09:03:05;5.03;;;4.33;;
16593;SDS011;8410;52.532;13.336;2022-09-21T09:05:44;4.93;;;4.43;;
16593;SDS011;8410;52.532;13.336;2022-09-21T09:08:24;9.40;;;8.43;;
16593;SDS011;8410;52.532;13.336;2022-09-21T09:11:05;7.77;;;4.50;;
16593;SDS011;8410;52.532;13.336;2022-09-21T09:13:47;6.03;;;4.20;;
16593;SDS011;8410;52.532;13.336;2022-09-21T09:16:24;6.80;;;4.40;;
16593;SDS011;8410;52.532;13.336;2022-09-21T09:19:00;4.63;;;4.00;;
16593;SDS011;8410;52.532;13.336;2022-09-21T09:21:36;5.70;;;4.57;;
16593;SDS011;8410;52.532;13.336;2022-09-21T09:24:09;5.10;;;3.80;;
16593;SDS011;8410;52.532;13.336;2022-09-21T09:26:43;6.63;;;4.43;;
16593;SDS011;8410;52.532;13.336;2022-09-21T09:29:17;8.33;;;4.97;;
16593;SDS011;8410;52.532;13.336;2022-09-21T09:31:49;11.30;;;10.10;;
16593;SDS011;8410;52.532;13.336;2022-09-21T09:34:20;6.63;;;6.03;;
16593;SDS011;8410;52.532;13.336;2022-09-21T09:36:53;5.53;;;4.00;;
16593;SDS011;8410;52.532;13.336;2022-09-21T09:39:26;4.43;;;3.43;;
16593;SDS011;8410;52.532;13.336;2022-09-21T09:41:59;5.63;;;3.77;;
16593;SDS011;8410;52.532;13.336;2022-09-21T09:44:40;5.73;;;3.70;;
16593;SDS011;8410;52.532;13.336;2022-09-21T09:47:19;5.73;;;3.43;;
16593;SDS011;8410;52.532;13.336;2022-09-21T09:50:00;3.87;;;2.73;;
16593;SDS011;8410;52.532;13.336;2022-09-21T09:52:32;4.37;;;2.70;;
16593;SDS011;8410;52.532;13.336;2022-09-21T09:55:05;4.17;;;2.57;;
16593;SDS011;8410;52.532;13.336;2022-09-21T09:57:41;2.63;;;1.70;;
16593;SDS011;8410;52.532;13.336;2022-09-21T10:00:12;3.30;;;1.77;;
16593;SDS011;8410;52.532;13.336;2022-09-21T10:02:47;2.10;;;1.43;;
16593;SDS011;8410;52.532;13.336;2022-09-21T10:05:20;2.83;;;1.93;;
16593;SDS011;8410;52.532;13.336;2022-09-21T10:07:50;1.87;;;1.50;;
16593;SDS011;8410;52.532;13.336;2022-09-21T10:10:25;4.60;;;1.80;;
16593;SDS011;8410;52.532;13.336;2022-09-21T10:13:02;3.47;;;1.70;;
16593;SDS011;8410;52.532;13.336;2022-09-21T10:15:37;1.70;;;1.40;;
16593;SDS011;8410;52.532;13.336;2022-09-21T10:18:16;1.53;;;1.10;;
16593;SDS011;8410;52.532;13.336;2022-09-21T10:20:53;2.63;;;1.30;;
16593;SDS011;8410;52.532;13.336;2022-09-21T10:23:22;3.10;;;1.17;;
16593;SDS011;8410;52.532;13.336;2022-09-21T10:25:55;1.70;;;1.00;;
16593;SDS011;8410;52.532;13.336;2022-09-21T10:28:25;3.47;;;1.10;;
16593;SDS011;8410;52.532;13.336;2022-09-21T10:33:53;2.23;;;1.57;;
16593;SDS011;8410;52.532;13.336;2022-09-21T10:36:32;1.33;;;1.10;;
16593;SDS011;8410;52.532;13.336;2022-09-21T10:39:17;1.37;;;1.00;;
16593;SDS011;8410;52.532;13.336;2022-09-21T10:41:48;1.43;;;1.00;;
16593;SDS011;8410;52.532;13.336;2022-09-21T10:44:18;1.97;;;1.07;;
16593;SDS011;8410;52.532;13.336;2022-09-21T10:46:48;2.50;;;1.00;;
16593;SDS011;8410;52.532;13.336;2022-09-21T10:49:19;2.23;;;1.90;;
16593;SDS011;8410;52.532;13.336;2022-09-21T10:51:49;1.17;;;0.90;;
16593;SDS011;8410;52.532;13.336;2022-09-21T10:54:22;0.87;;;0.87;;
16593;SDS011;8410;52.532;13.336;2022-09-21T10:56:54;1.87;;;1.67;;
16593;SDS011;8410;52.532;13.336;2022-09-21T10:59:26;0.77;;;0.70;;
16593;SDS011;8410;52.532;13.336;2022-09-21T11:01:55;1.30;;;1.20;;
16593;SDS011;8410;52.532;13.336;2022-09-21T11:04:33;2.70;;;2.20;;
16593;SDS011;8410;52.532;13.336;2022-09-21T11:07:14;1.93;;;1.73;;
16593;SDS011;8410;52.532;13.336;2022-09-21T11:09:47;2.90;;;2.00;;
16593;SDS011;8410;52.532;13.336;2022-09-21T11:12:27;3.27;;;2.30;;
16593;SDS011;8410;52.532;13.336;2022-09-21T11:15:01;2.57;;;1.10;;
16593;SDS011;8410;52.532;13.336;2022-09-21T11:17:39;1.77;;;1.40;;
16593;SDS011;8410;52.532;13.336;2022-09-21T11:20:17;2.47;;;1.13;;
16593;SDS011;8410;52.532;13.336;2022-09-21T11:22:55;1.63;;;1.00;;
16593;SDS011;8410;52.532;13.336;2022-09-21T11:25:30;1.23;;;0.87;;
16593;SDS011;8410;52.532;13.336;2022-09-21T11:28:09;2.40;;;1.20;;
16593;SDS011;8410;52.532;13.336;2022-09-21T11:30:46;4.20;;;1.13;;
16593;SDS011;8410;52.532;13.336;2022-09-21T11:33:32;1.10;;;0.90;;
16593;SDS011;8410;52.532;13.336;2022-09-21T11:36:12;0.60;;;0.60;;
16593;SDS011;8410;52.532;13.336;2022-09-21T11:38:51;0.57;;;0.57;;
16593;SDS011;8410;52.532;13.336;2022-09-21T11:41:30;1.43;;;1.20;;
16593;SDS011;8410;52.532;13.336;2022-09-21T11:44:21;1.37;;;0.90;;
16593;SDS011;8410;52.532;13.336;2022-09-21T11:47:01;7.10;;;6.50;;
16593;SDS011;8410;52.532;13.336;2022-09-21T11:49:40;2.50;;;1.27;;
16593;SDS011;8410;52.532;13.336;2022-09-21T11:52:37;1.63;;;1.00;;
16593;SDS011;8410;52.532;13.336;2022-09-21T11:55:20;2.63;;;0.70;;
16593;SDS011;8410;52.532;13.336;2022-09-21T11:57:53;1.70;;;0.93;;
16593;SDS011;8410;52.532;13.336;2022-09-21T12:00:29;1.97;;;1.20;;
16593;SDS011;8410;52.532;13.336;2022-09-21T12:03:18;1.87;;;0.90;;
16593;SDS011;8410;52.532;13.336;2022-09-21T12:06:02;2.97;;;1.00;;
16593;SDS011;8410;52.532;13.336;2022-09-21T12:08:44;1.17;;;1.00;;
16593;SDS011;8410;52.532;13.336;2022-09-21T12:11:23;0.80;;;0.80;;
16593;SDS011;8410;52.532;13.336;2022-09-21T12:13:59;2.27;;;0.80;;
16593;SDS011;8410;52.532;13.336;2022-09-21T12:16:36;2.57;;;2.37;;
16593;SDS011;8410;52.532;13.336;2022-09-21T12:19:09;1.87;;;1.10;;
16593;SDS011;8410;52.532;13.336;2022-09-21T12:21:47;1.77;;;1.67;;
16593;SDS011;8410;52.532;13.336;2022-09-21T12:24:17;1.40;;;1.30;;
16593;SDS011;8410;52.532;13.336;2022-09-21T12:26:48;1.53;;;1.20;;
16593;SDS011;8410;52.532;13.336;2022-09-21T12:29:21;2.97;;;1.17;;
16593;SDS011;8410;52.532;13.336;2022-09-21T12:31:57;4.57;;;2.00;;
16593;SDS011;8410;52.532;13.336;2022-09-21T12:34:33;3.67;;;2.07;;
16593;SDS011;8410;52.532;13.336;2022-09-21T12:37:07;2.23;;;1.43;;
16593;SDS011;8410;52.532;13.336;2022-09-21T12:39:40;3.93;;;1.60;;
16593;SDS011;8410;52.532;13.336;2022-09-21T12:42:21;1.53;;;1.27;;
16593;SDS011;8410;52.532;13.336;2022-09-21T12:44:55;2.10;;;1.40;;
16593;SDS011;8410;52.532;13.336;2022-09-21T12:47:28;2.30;;;1.10;;
16593;SDS011;8410;52.532;13.336;2022-09-21T12:50:05;2.03;;;1.03;;
16593;SDS011;8410;52.532;13.336;2022-09-21T12:52:46;1.20;;;1.00;;
16593;SDS011;8410;52.532;13.336;2022-09-21T12:55:20;0.93;;;0.83;;
16593;SDS011;8410;52.532;13.336;2022-09-21T12:58:04;2.03;;;1.30;;
16593;SDS011;8410;52.532;13.336;2022-09-21T13:00:41;1.87;;;1.20;;
16593;SDS011;8410;52.532;13.336;2022-09-21T13:03:20;4.53;;;1.33;;
16593;SDS011;8410;52.532;13.336;2022-09-21T13:06:01;3.40;;;1.10;;
16593;SDS011;8410;52.532;13.336;2022-09-21T13:08:42;1.17;;;1.10;;
16593;SDS011;8410;52.532;13.336;2022-09-21T13:11:12;1.27;;;0.90;;
16593;SDS011;8410;52.532;13.336;2022-09-21T13:13:46;3.77;;;0.93;;
16593;SDS011;8410;52.532;13.336;2022-09-21T13:16:21;3.33;;;0.90;;
16593;SDS011;8410;52.532;13.336;2022-09-21T13:18:54;1.60;;;1.00;;
16593;SDS011;8410;52.532;13.336;2022-09-21T13:21:24;1.00;;;0.90;;
16593;SDS011;8410;52.532;13.336;2022-09-21T13:23:55;1.10;;;0.70;;
16593;SDS011;8410;52.532;13.336;2022-09-21T13:26:32;1.60;;;1.00;;
16593;SDS011;8410;52.532;13.336;2022-09-21T13:31:57;1.53;;;0.90;;
16593;SDS011;8410;52.532;13.336;2022-09-21T13:34:28;2.37;;;0.70;;
16593;SDS011;8410;52.532;13.336;2022-09-21T13:37:20;1.03;;;0.93;;
16593;SDS011;8410;52.532;13.336;2022-09-21T13:46:21;1.00;;;1.00;;
16593;SDS011;8410;52.532;13.336;2022-09-21T13:49:23;1.10;;;0.97;;
16593;SDS011;8410;52.532;13.336;2022-09-21T13:51:58;1.03;;;0.80;;
16593;SDS011;8410;52.532;13.336;2022-09-21T13:54:28;1.17;;;1.07;;
16593;SDS011;8410;52.532;13.336;2022-09-21T13:57:01;1.10;;;1.00;;
16593;SDS011;8410;52.532;13.336;2022-09-21T13:59:34;2.10;;;1.10;;
16593;SDS011;8410;52.532;13.336;2022-09-21T14:02:06;1.20;;;1.03;;
16593;SDS011;8410;52.532;13.336;2022-09-21T14:04:49;1.60;;;1.00;;
16593;SDS011;8410;52.532;13.336;2022-09-21T14:07:19;1.00;;;0.90;;
16593;SDS011;8410;52.532;13.336;2022-09-21T14:09:52;1.63;;;0.90;;
16593;SDS011;8410;52.532;13.336;2022-09-21T14:12:23;1.27;;;0.83;;
16593;SDS011;8410;52.532;13.336;2022-09-21T14:18:07;1.53;;;0.77;;
16593;SDS011;8410;52.532;13.336;2022-09-21T14:23:35;0.80;;;0.80;;
16593;SDS011;8410;52.532;13.336;2022-09-21T14:26:18;1.10;;;1.00;;
16593;SDS011;8410;52.532;13.336;2022-09-21T14:28:51;1.90;;;0.80;;
16593;SDS011;8410;52.532;13.336;2022-09-21T14:31:21;1.40;;;1.00;;
16593;SDS011;8410;52.532;13.336;2022-09-21T14:33:53;1.47;;;0.80;;
16593;SDS011;8410;52.532;13.336;2022-09-21T14:36:23;1.43;;;0.90;;
16593;SDS011;8410;52.532;13.336;2022-09-21T14:39:02;3.70;;;0.90;;
16593;SDS011;8410;52.532;13.336;2022-09-21T14:41:36;0.70;;;0.70;;
16593;SDS011;8410;52.532;13.336;2022-09-21T14:44:11;2.40;;;0.70;;
16593;SDS011;8410;52.532;13.336;2022-09-21T14:46:47;1.20;;;0.73;;
16593;SDS011;8410;52.532;13.336;2022-09-21T14:49:29;2.33;;;0.60;;
16593;SDS011;8410;52.532;13.336;2022-09-21T14:52:11;2.23;;;0.80;;
16593;SDS011;8410;52.532;13.336;2022-09-21T14:55:01;1.37;;;1.17;;
16593;SDS011;8410;52.532;13.336;2022-09-21T14:57:45;4.00;;;0.90;;
16593;SDS011;8410;52.532;13.336;2022-09-21T15:00:23;1.63;;;0.60;;
16593;SDS011;8410;52.532;13.336;2022-09-21T15:03:27;0.80;;;0.63;;
16593;SDS011;8410;52.532;13.336;2022-09-21T15:06:07;2.00;;;0.97;;
16593;SDS011;8410;52.532;13.336;2022-09-21T15:09:03;1.33;;;0.80;;
16593;SDS011;8410;52.532;13.336;2022-09-21T15:12:07;0.90;;;0.70;;
16593;SDS011;8410;52.532;13.336;2022-09-21T15:14:39;1.47;;;0.70;;
16593;SDS011;8410;52.532;13.336;2022-09-21T15:17:22;0.90;;;0.77;;
16593;SDS011;8410;52.532;13.336;2022-09-21T15:19:55;3.60;;;0.80;;
16593;SDS011;8410;52.532;13.336;2022-09-21T15:22:24;0.87;;;0.87;;
16593;SDS011;8410;52.532;13.336;2022-09-21T15:24:53;1.20;;;0.70;;
16593;SDS011;8410;52.532;13.336;2022-09-21T15:27:24;0.40;;;0.40;;
16593;SDS011;8410;52.532;13.336;2022-09-21T15:29:58;1.60;;;1.03;;
16593;SDS011;8410;52.532;13.336;2022-09-21T15:32:32;0.67;;;0.60;;
16593;SDS011;8410;52.532;13.336;2022-09-21T15:35:03;1.07;;;0.60;;
16593;SDS011;8410;52.532;13.336;2022-09-21T15:37:40;3.57;;;0.80;;
16593;SDS011;8410;52.532;13.336;2022-09-21T15:40:14;0.77;;;0.70;;